Terminal Aerodrome Forecast
Issued by NWS Cleveland, OH

Home | Current Version | Previous Version | Graphics & Text | Print | Product List | Glossary On
Versions: 1 2 3 4 5 6 7 8 9 10 11 12 13 14 15 16 17 18
000
FTUS41 KCLE 311000 AAA
TAFYNG
TAF AMD
KYNG 311050Z 3111/0106 21008KT 5SM -SHRA BR SCT006 OVC035
     FM311300 22008KT 5SM -SHRA BR BKN006 OVC015
     FM311800 22008KT P6SM VCTS SCT006CB OVC015
      TEMPO 3118/3122 4SM -SHRA SCT006 OVC015
     FM312300 22008KT P6SM OVC020=

USA.gov is the U.S. government's official web portal to all federal, state and local government web resources and services.